createdAt,value
2018-07-22T00:01:20.655Z,96669.09
2018-07-22T00:03:49.878Z,96663.67
2018-07-22T00:06:19.279Z,96666.66
2018-07-22T00:08:48.472Z,96670.73
2018-07-22T00:11:17.676Z,96676.82
2018-07-22T00:13:47.159Z,96675.66
2018-07-22T00:16:16.327Z,96671.27
2018-07-22T00:18:46.252Z,96677.87
2018-07-22T00:21:15.450Z,96676.80
2018-07-22T00:23:45.342Z,96667.27
2018-07-22T00:26:14.536Z,96667.84
2018-07-22T00:28:43.979Z,96670.87
2018-07-22T00:31:13.150Z,96669.45
2018-07-22T00:33:42.356Z,96668.08
2018-07-22T00:36:11.536Z,96668.34
2018-07-22T00:38:40.883Z,96665.80
2018-07-22T00:41:10.099Z,96666.53
2018-07-22T00:43:39.291Z,96669.50
2018-07-22T00:46:08.463Z,96661.06
2018-07-22T00:48:37.687Z,96672.75
2018-07-22T00:51:07.183Z,96670.11
2018-07-22T00:53:36.398Z,96670.06
2018-07-22T00:56:05.793Z,96669.31
2018-07-22T00:58:34.970Z,96668.08
2018-07-22T01:01:04.131Z,96665.45
2018-07-22T01:03:33.309Z,96664.84
2018-07-22T01:06:02.487Z,96665.11
2018-07-22T01:08:31.749Z,96665.13
2018-07-22T01:11:00.912Z,96663.97
2018-07-22T01:13:30.111Z,96664.21
2018-07-22T01:15:59.276Z,96665.09
2018-07-22T01:18:28.475Z,96660.63
2018-07-22T01:20:57.638Z,96665.23
2018-07-22T01:23:26.874Z,96658.28
2018-07-22T01:25:56.192Z,96669.84
2018-07-22T01:28:25.482Z,96670.11
2018-07-22T01:30:54.975Z,96662.67
2018-07-22T01:33:24.146Z,96664.78
2018-07-22T01:35:53.418Z,96662.31
2018-07-22T01:38:22.999Z,96664.59
2018-07-22T01:40:52.174Z,96662.77
2018-07-22T01:43:21.500Z,96663.55
2018-07-22T01:45:51.307Z,96663.78
2018-07-22T01:48:20.560Z,96667.81
2018-07-22T01:50:49.744Z,96671.98
2018-07-22T01:53:18.931Z,96667.52
2018-07-22T01:55:48.097Z,96670.48
2018-07-22T01:58:17.388Z,96669.89
2018-07-22T02:00:46.573Z,96671.58
2018-07-22T02:03:15.771Z,96678.23
2018-07-22T02:05:44.964Z,96681.75
2018-07-22T02:08:14.447Z,96675.56
2018-07-22T02:10:44.067Z,96679.61
2018-07-22T02:13:13.667Z,96680.55
2018-07-22T02:15:42.831Z,96681.07
2018-07-22T02:18:12.052Z,96674.91
2018-07-22T02:20:41.234Z,96671.87
2018-07-22T02:23:10.427Z,96681.41
2018-07-22T02:25:39.606Z,96680.31
2018-07-22T02:28:09.496Z,96673.56
2018-07-22T02:30:38.704Z,96672.13
2018-07-22T02:33:07.891Z,96674.75
2018-07-22T02:35:37.303Z,96674.59
2018-07-22T02:38:06.507Z,96681.84
2018-07-22T02:40:35.699Z,96682.45
2018-07-22T02:43:04.930Z,96672.64
2018-07-22T02:45:34.131Z,96677.12
2018-07-22T02:48:03.304Z,96677.03
2018-07-22T02:50:32.490Z,96679.74
2018-07-22T02:53:01.911Z,96684.55
2018-07-22T02:55:31.138Z,96678.55
2018-07-22T02:58:00.454Z,96683.56
2018-07-22T03:00:29.631Z,96685.72
2018-07-22T03:02:59.009Z,96689.43
2018-07-22T03:05:28.407Z,96691.80
2018-07-22T03:07:57.719Z,96693.32
2018-07-22T03:10:26.913Z,96683.30
2018-07-22T03:12:56.104Z,96698.13
2018-07-22T03:15:25.407Z,96698.13
2018-07-22T03:17:55.104Z,96698.13
2018-07-22T03:20:24.272Z,96703.34
2018-07-22T03:22:53.972Z,96707.95
2018-07-22T03:25:23.403Z,96707.69
2018-07-22T03:27:52.977Z,96707.66
2018-07-22T03:30:22.539Z,96703.25
2018-07-22T03:32:51.963Z,96705.16
2018-07-22T03:35:21.153Z,96701.61
2018-07-22T03:37:50.310Z,96700.44
2018-07-22T03:40:19.519Z,96702.27
2018-07-22T03:42:48.706Z,96705.84
2018-07-22T03:45:17.910Z,96698.76
2018-07-22T03:47:47.067Z,96700.34
2018-07-22T03:50:16.234Z,96696.83
2018-07-22T03:52:45.446Z,96698.98
2018-07-22T03:55:14.640Z,96705.15
2018-07-22T03:57:43.807Z,96702.61
2018-07-22T04:00:12.991Z,96706.67
2018-07-22T04:02:42.157Z,96702.61
2018-07-22T04:05:11.382Z,96708.86
2018-07-22T04:07:40.547Z,96713.95
2018-07-22T04:10:09.730Z,96710.20
2018-07-22T04:12:38.918Z,96712.33
2018-07-22T04:15:08.220Z,96718.33
2018-07-22T04:17:37.531Z,96714.39
2018-07-22T04:20:06.968Z,96713.45
2018-07-22T04:22:36.265Z,96719.86
2018-07-22T04:25:05.479Z,96720.34
2018-07-22T04:27:34.654Z,96716.54
2018-07-22T04:30:03.926Z,96722.98
2018-07-22T04:32:33.139Z,96719.00
2018-07-22T04:35:02.487Z,96722.97
2018-07-22T04:37:31.859Z,96723.33
2018-07-22T04:40:01.023Z,96724.69
2018-07-22T04:42:30.320Z,96729.34
2018-07-22T04:44:59.515Z,96727.70
2018-07-22T04:47:29.414Z,96730.97
2018-07-22T04:49:58.612Z,96732.55
2018-07-22T04:52:27.779Z,96730.53
2018-07-22T04:54:57.987Z,96733.66
2018-07-22T04:57:27.147Z,96730.29
2018-07-22T04:59:56.333Z,96731.54
2018-07-22T05:02:25.586Z,96731.73
2018-07-22T05:04:54.786Z,96732.09
2018-07-22T05:07:23.975Z,96736.64
2018-07-22T05:09:53.177Z,96735.50
2018-07-22T05:12:22.367Z,96741.73
2018-07-22T05:14:51.546Z,96734.11
2018-07-22T05:17:20.730Z,96736.97
2018-07-22T05:19:49.922Z,96737.72
2018-07-22T05:22:19.103Z,96734.09
2018-07-22T05:24:48.286Z,96737.39
2018-07-22T05:27:17.475Z,96741.09
2018-07-22T05:29:46.678Z,96744.06
2018-07-22T05:32:15.994Z,96736.55
2018-07-22T05:34:45.459Z,96741.11
2018-07-22T05:37:14.815Z,96741.62
2018-07-22T05:39:44.062Z,96744.84
2018-07-22T05:42:13.595Z,96745.44
2018-07-22T05:44:42.687Z,96743.94
2018-07-22T05:47:11.856Z,96749.80
2018-07-22T05:49:41.047Z,96756.27
2018-07-22T05:52:10.259Z,96754.67
2018-07-22T05:54:40.800Z,96758.37
2018-07-22T05:57:11.019Z,96754.58
2018-07-22T05:59:40.239Z,96759.71
2018-07-22T06:02:09.535Z,96767.19
2018-07-22T06:04:38.867Z,96763.94
2018-07-22T06:07:08.071Z,96771.30
2018-07-22T06:09:37.271Z,96775.77
2018-07-22T06:12:06.597Z,96784.69
2018-07-22T06:14:35.715Z,96779.01
2018-07-22T06:17:05.196Z,96783.44
2018-07-22T06:19:34.424Z,96776.03
2018-07-22T06:22:03.623Z,96780.73
2018-07-22T06:24:32.811Z,96783.69
2018-07-22T06:27:01.987Z,96785.50
2018-07-22T06:29:31.394Z,96784.88
2018-07-22T06:32:00.587Z,96796.56
2018-07-22T06:34:29.811Z,96794.17
2018-07-22T06:36:59.005Z,96795.58
2018-07-22T06:39:30.229Z,96803.45
2018-07-22T06:41:59.459Z,96805.94
2018-07-22T06:44:28.759Z,96799.53
2018-07-22T06:46:57.927Z,96799.16
2018-07-22T06:49:27.509Z,96804.52
2018-07-22T06:51:57.812Z,96797.76
2018-07-22T06:54:27.930Z,96801.93
2018-07-22T06:56:57.173Z,96806.58
2018-07-22T06:59:26.347Z,96801.41
2018-07-22T07:01:55.625Z,96804.08
2018-07-22T07:04:24.860Z,96793.88
2018-07-22T07:06:54.174Z,96811.03
2018-07-22T07:09:23.654Z,96813.56
2018-07-22T07:11:52.846Z,96818.12
2018-07-22T07:14:22.052Z,96826.14
2018-07-22T07:16:51.595Z,96829.02
2018-07-22T07:19:20.766Z,96827.73
2018-07-22T07:21:50.135Z,96835.73
2018-07-22T07:24:19.334Z,96828.15
2018-07-22T07:26:48.593Z,96833.84
2018-07-22T07:29:17.715Z,96839.98
2018-07-22T07:31:47.136Z,96838.98
2018-07-22T07:34:16.383Z,96841.19
2018-07-22T07:36:45.559Z,96838.23
2018-07-22T07:39:14.735Z,96836.12
2018-07-22T07:41:44.016Z,96842.97
2018-07-22T07:44:13.612Z,96833.58
2018-07-22T07:46:43.139Z,96836.44
2018-07-22T07:49:12.311Z,96834.85
2018-07-22T07:51:41.487Z,96833.60
2018-07-22T07:54:10.684Z,96835.31
2018-07-22T07:56:39.895Z,96834.88
2018-07-22T07:59:09.075Z,96835.95
2018-07-22T08:01:38.306Z,96838.28
2018-07-22T08:04:08.156Z,96838.41
2018-07-22T08:06:37.358Z,96842.25
2018-07-22T08:09:07.727Z,96845.98
2018-07-22T08:11:37.258Z,96843.84
2018-07-22T08:14:06.434Z,96844.99
2018-07-22T08:16:36.203Z,96843.22
2018-07-22T08:19:05.422Z,96842.94
2018-07-22T08:21:34.639Z,96836.80
2018-07-22T08:24:03.801Z,96842.86
2018-07-22T08:26:32.972Z,96838.41
2018-07-22T08:29:20.556Z,96838.16
2018-07-22T08:31:51.335Z,96840.02
2018-07-22T08:34:20.731Z,96843.84
2018-07-22T08:36:50.147Z,96834.34
2018-07-22T08:39:20.667Z,96833.91
2018-07-22T08:41:50.635Z,96837.73
2018-07-22T08:44:19.799Z,96836.54
2018-07-22T08:46:48.999Z,96836.22
2018-07-22T08:49:18.548Z,96837.05
2018-07-22T08:51:48.055Z,96842.73
2018-07-22T08:54:17.267Z,96849.36
2018-07-22T08:56:46.459Z,96849.05
2018-07-22T08:59:15.685Z,96843.13
2018-07-22T09:01:44.894Z,96841.12
2018-07-22T09:04:14.066Z,96842.79
2018-07-22T09:06:47.254Z,96842.48
2018-07-22T09:09:16.483Z,96845.83
2018-07-22T09:11:48.590Z,96848.60
2018-07-22T09:14:17.965Z,96858.55
2018-07-22T09:16:49.226Z,96864.57
2018-07-22T09:19:19.487Z,96861.52
2018-07-22T09:21:51.752Z,96859.86
2018-07-22T09:24:22.135Z,96863.44
2018-07-22T09:26:52.698Z,96865.98
2018-07-22T09:29:23.681Z,96864.20
2018-07-22T09:31:54.853Z,96864.95
2018-07-22T09:34:25.291Z,96868.23
2018-07-22T09:36:55.083Z,96868.52
2018-07-22T09:39:24.291Z,96871.86
2018-07-22T09:41:54.749Z,96872.45
2018-07-22T09:44:23.881Z,96868.83
2018-07-22T09:46:53.219Z,96873.45
2018-07-22T09:49:22.605Z,96877.48
2018-07-22T09:51:51.804Z,96872.60
2018-07-22T09:54:21.566Z,96874.45
2018-07-22T09:56:50.775Z,96872.94
2018-07-22T09:59:20.344Z,96866.79
2018-07-22T10:01:49.771Z,96863.33
2018-07-22T10:04:19.150Z,96880.06
2018-07-22T10:06:48.325Z,96874.44
2018-07-22T10:09:17.560Z,96872.47
2018-07-22T10:11:46.747Z,96874.44
2018-07-22T10:14:16.325Z,96866.65
2018-07-22T10:16:45.506Z,96870.09
2018-07-22T10:19:14.706Z,96871.09
2018-07-22T10:21:44.227Z,96879.28
2018-07-22T10:24:13.415Z,96873.97
2018-07-22T10:26:42.623Z,96875.25
2018-07-22T10:29:11.790Z,96869.11
2018-07-22T10:31:41.003Z,96867.66
2018-07-22T10:34:10.207Z,96869.50
2018-07-22T10:36:39.447Z,96867.41
2018-07-22T10:39:10.451Z,96859.67
2018-07-22T10:41:39.763Z,96861.17
2018-07-22T10:44:09.050Z,96858.56
2018-07-22T10:46:38.363Z,96856.36
2018-07-22T10:49:07.787Z,96854.23
2018-07-22T10:51:40.089Z,96858.80
2018-07-22T10:54:09.364Z,96859.76
2018-07-22T10:56:38.539Z,96863.78
2018-07-22T10:59:07.707Z,96855.69
2018-07-22T11:01:37.040Z,96855.97
2018-07-22T11:04:06.414Z,96853.37
2018-07-22T11:06:36.090Z,96846.19
2018-07-22T11:09:07.674Z,96848.16
2018-07-22T11:11:36.851Z,96842.44
2018-07-22T11:14:06.116Z,96843.59
2018-07-22T11:16:35.321Z,96835.49
2018-07-22T11:19:04.552Z,96849.64
2018-07-22T11:21:33.808Z,96845.65
2018-07-22T11:24:02.978Z,96843.25
2018-07-22T11:26:32.423Z,96840.61
2018-07-22T11:29:01.617Z,96843.16
2018-07-22T11:31:30.923Z,96842.55
2018-07-22T11:34:01.304Z,96832.13
2018-07-22T11:36:30.478Z,96832.23
2018-07-22T11:38:59.655Z,96838.27
2018-07-22T11:41:28.827Z,96841.66
2018-07-22T11:43:58.087Z,96834.38
2018-07-22T11:46:27.223Z,96830.70
2018-07-22T11:48:57.234Z,96824.90
2018-07-22T11:51:26.414Z,96815.56
2018-07-22T11:53:55.610Z,96814.20
2018-07-22T11:56:24.965Z,96823.92
2018-07-22T11:58:54.503Z,96819.37
2018-07-22T12:01:24.020Z,96809.65
2018-07-22T12:03:53.619Z,96812.03
2018-07-22T12:06:22.815Z,96809.52
2018-07-22T12:08:52.020Z,96808.81
2018-07-22T12:11:21.319Z,96812.67
2018-07-22T12:13:50.512Z,96811.81
2018-07-22T12:16:20.039Z,96806.55
2018-07-22T12:18:49.262Z,96800.19
2018-07-22T12:21:18.486Z,96804.00
2018-07-22T12:23:47.948Z,96798.90
2018-07-22T12:26:17.119Z,96805.09
2018-07-22T12:28:46.488Z,96798.66
2018-07-22T12:31:15.771Z,96795.25
2018-07-22T12:33:44.963Z,96793.38
2018-07-22T12:36:14.447Z,96785.50
2018-07-22T12:38:43.852Z,96787.01
2018-07-22T12:41:13.010Z,96790.05
2018-07-22T12:43:42.275Z,96786.45
2018-07-22T12:46:11.476Z,96781.64
2018-07-22T12:48:40.647Z,96783.39
2018-07-22T12:51:09.872Z,96782.17
2018-07-22T12:53:39.083Z,96781.73
2018-07-22T12:56:08.210Z,96774.00
2018-07-22T12:58:37.643Z,96779.88
2018-07-22T13:01:06.995Z,96768.38
2018-07-22T13:03:36.487Z,96762.64
2018-07-22T13:06:05.671Z,96765.56
2018-07-22T13:08:34.892Z,96764.73
2018-07-22T13:11:04.034Z,96773.61
2018-07-22T13:13:33.227Z,96769.87
2018-07-22T13:16:02.462Z,96771.70
2018-07-22T13:18:31.999Z,96769.11
2018-07-22T13:21:01.152Z,96763.01
2018-07-22T13:23:30.335Z,96766.41
2018-07-22T13:25:59.660Z,96765.80
2018-07-22T13:28:29.159Z,96767.84
2018-07-22T13:30:58.350Z,96764.20
2018-07-22T13:33:27.554Z,96761.44
2018-07-22T13:35:57.102Z,96761.85
2018-07-22T13:38:26.535Z,96753.95
2018-07-22T13:40:56.474Z,96765.88
2018-07-22T13:43:25.640Z,96763.11
2018-07-22T13:45:54.818Z,96756.88
2018-07-22T13:48:24.023Z,96757.19
2018-07-22T13:50:53.195Z,96764.41
2018-07-22T13:53:22.403Z,96761.14
2018-07-22T13:55:51.579Z,96755.69
2018-07-22T13:58:20.782Z,96755.34
2018-07-22T14:00:49.986Z,96755.01
2018-07-22T14:03:20.462Z,96748.11
2018-07-22T14:05:49.639Z,96747.80
2018-07-22T14:08:18.886Z,96756.11
2018-07-22T14:10:48.051Z,96767.86
2018-07-22T14:13:17.533Z,96758.30
2018-07-22T14:15:46.714Z,96766.00
2018-07-22T14:18:16.045Z,96771.52
2018-07-22T14:20:45.192Z,96761.06
2018-07-22T14:23:14.373Z,96762.59
2018-07-22T14:25:44.049Z,96760.78
2018-07-22T14:28:13.276Z,96756.92
2018-07-22T14:30:42.375Z,96761.69
2018-07-22T14:33:11.559Z,96762.91
2018-07-22T14:35:40.751Z,96752.95
2018-07-22T14:38:09.942Z,96753.98
2018-07-22T14:40:39.282Z,96768.32
2018-07-22T14:43:08.742Z,96766.93
2018-07-22T14:45:37.903Z,96766.64
2018-07-22T14:48:07.588Z,96763.81
2018-07-22T14:50:36.730Z,96756.09
2018-07-22T14:53:06.696Z,96757.86
2018-07-22T14:55:35.856Z,96765.47
2018-07-22T14:58:05.099Z,96765.08
2018-07-22T15:00:34.271Z,96766.50
2018-07-22T15:03:03.765Z,96769.04
2018-07-22T15:05:33.043Z,96769.13
2018-07-22T15:08:02.167Z,96776.60
2018-07-22T15:10:31.366Z,96775.30
2018-07-22T15:13:00.556Z,96773.89
2018-07-22T15:15:30.096Z,96771.91
2018-07-22T15:17:59.283Z,96771.09
2018-07-22T15:20:28.600Z,96769.11
2018-07-22T15:22:58.114Z,96772.17
2018-07-22T15:25:27.291Z,96769.71
2018-07-22T15:27:56.451Z,96767.58
2018-07-22T15:30:25.674Z,96775.42
2018-07-22T15:32:54.824Z,96779.67
2018-07-22T15:35:25.118Z,96776.20
2018-07-22T15:37:54.293Z,96771.36
2018-07-22T15:40:23.507Z,96772.62
2018-07-22T15:42:52.696Z,96769.05
2018-07-22T15:45:23.702Z,96772.48
2018-07-22T15:47:53.422Z,96768.47
2018-07-22T15:50:23.207Z,96774.43
2018-07-22T15:52:52.898Z,96771.09
2018-07-22T15:55:22.200Z,96765.47
2018-07-22T15:57:51.254Z,96762.48
2018-07-22T16:00:20.459Z,96764.45
2018-07-22T16:02:49.658Z,96764.46
2018-07-22T16:05:19.150Z,96759.85
2018-07-22T16:07:49.043Z,96759.42
2018-07-22T16:10:18.460Z,96762.78
2018-07-22T16:12:47.649Z,96757.51
2018-07-22T16:15:16.883Z,96762.07
2018-07-22T16:17:46.161Z,96762.47
2018-07-22T16:20:15.455Z,96760.61
2018-07-22T16:22:46.333Z,96762.87
2018-07-22T16:25:16.015Z,96763.43
2018-07-22T16:27:45.486Z,96760.38
2018-07-22T16:30:14.707Z,96766.03
2018-07-22T16:32:44.811Z,96766.30
2018-07-22T16:35:14.142Z,96769.91
2018-07-22T16:37:43.348Z,96772.34
2018-07-22T16:40:12.759Z,96769.06
2018-07-22T16:42:41.939Z,96773.55
2018-07-22T16:45:11.861Z,96772.89
2018-07-22T16:47:41.044Z,96778.04
2018-07-22T16:50:10.415Z,96777.10
2018-07-22T16:52:39.583Z,96776.74
2018-07-22T16:55:08.802Z,96779.91
2018-07-22T16:57:37.951Z,96778.61
2018-07-22T17:00:07.371Z,96770.21
2018-07-22T17:02:36.586Z,96774.75
2018-07-22T17:05:05.766Z,96772.56
2018-07-22T17:07:35.071Z,96773.33
2018-07-22T17:10:04.304Z,96773.45
2018-07-22T17:12:33.455Z,96777.86
2018-07-22T17:15:02.649Z,96775.23
2018-07-22T17:17:31.827Z,96775.25
2018-07-22T17:20:01.011Z,96781.06
2018-07-22T17:22:30.211Z,96778.60
2018-07-22T17:24:59.378Z,96779.64
2018-07-22T17:27:28.794Z,96779.88
2018-07-22T17:29:58.252Z,96782.29
2018-07-22T17:32:27.431Z,96778.09
2018-07-22T17:34:56.611Z,96785.84
2018-07-22T17:37:26.641Z,96786.99
2018-07-22T17:39:58.794Z,96787.44
2018-07-22T17:42:29.499Z,96788.59
2018-07-22T17:44:58.758Z,96791.52
2018-07-22T17:47:28.896Z,96794.78
2018-07-22T17:49:58.158Z,96792.09
2018-07-22T17:52:27.895Z,96794.61
2018-07-22T17:54:57.067Z,96792.95
2018-07-22T17:57:26.252Z,96796.72
2018-07-22T17:59:55.431Z,96791.44
2018-07-22T18:02:24.598Z,96792.90
2018-07-22T18:04:53.840Z,96790.53
2018-07-22T18:07:23.079Z,96797.30
2018-07-22T18:09:53.966Z,96788.02
2018-07-22T18:12:23.824Z,96795.56
2018-07-22T18:14:54.068Z,96791.77
2018-07-22T18:17:24.082Z,96794.09
2018-07-22T18:19:54.235Z,96789.87
2018-07-22T18:22:24.240Z,96791.78
2018-07-22T18:24:54.376Z,96787.83
2018-07-22T18:27:24.715Z,96799.01
2018-07-22T18:29:55.079Z,96794.57
2018-07-22T18:32:25.827Z,96800.13
2018-07-22T18:34:56.049Z,96809.16
2018-07-22T18:37:25.221Z,96812.03
2018-07-22T18:39:54.390Z,96808.97
2018-07-22T18:42:23.696Z,96817.13
2018-07-22T18:44:52.828Z,96815.46
2018-07-22T18:47:22.011Z,96807.99
2018-07-22T18:49:51.237Z,96815.28
2018-07-22T18:52:20.363Z,96812.55
2018-07-22T18:54:49.721Z,96809.59
2018-07-22T18:57:18.915Z,96813.73
2018-07-22T18:59:48.205Z,96823.27
2018-07-22T19:02:17.906Z,96825.70
2018-07-22T19:04:47.105Z,96821.29
2018-07-22T19:07:16.279Z,96824.59
2018-07-22T19:09:45.654Z,96831.66
2018-07-22T19:12:14.959Z,96836.45
2018-07-22T19:14:44.150Z,96843.48
2018-07-22T19:17:13.699Z,96846.81
2018-07-22T19:19:43.533Z,96844.44
2018-07-22T19:22:12.619Z,96848.70
2018-07-22T19:24:41.942Z,96856.61
2018-07-22T19:27:11.131Z,96856.77
2018-07-22T19:29:40.801Z,96859.01
2018-07-22T19:32:10.309Z,96861.23
2018-07-22T19:34:39.474Z,96871.09
2018-07-22T19:37:08.672Z,96877.41
2018-07-22T19:39:37.870Z,96878.76
2018-07-22T19:42:07.620Z,96880.52
2018-07-22T19:44:37.514Z,96885.11
2018-07-22T19:47:06.695Z,96879.80
2018-07-22T19:49:35.850Z,96887.50
2018-07-22T19:52:05.041Z,96890.45
2018-07-22T19:54:34.210Z,96890.70
2018-07-22T19:57:03.403Z,96898.22
2018-07-22T19:59:32.603Z,96889.14
2018-07-22T20:02:01.806Z,96904.22
2018-07-22T20:04:31.290Z,96905.84
2018-07-22T20:07:00.759Z,96909.08
2018-07-22T20:09:29.947Z,96901.89
2018-07-22T20:11:59.562Z,96906.25
2018-07-22T20:14:28.731Z,96904.27
2018-07-22T20:16:59.360Z,96908.59
2018-07-22T20:19:28.580Z,96911.14
2018-07-22T20:22:01.933Z,96909.66
2018-07-22T20:24:31.076Z,96912.50
2018-07-22T20:27:00.259Z,96911.84
2018-07-22T20:29:29.434Z,96917.75
2018-07-22T20:31:58.603Z,96907.13
2018-07-22T20:34:27.784Z,96926.66
2018-07-22T20:36:57.206Z,96928.20
2018-07-22T20:39:26.374Z,96926.54
2018-07-22T20:41:55.559Z,96930.66
2018-07-22T20:44:24.923Z,96934.30
2018-07-22T20:46:56.856Z,96929.22
2018-07-22T20:49:26.016Z,96935.78
2018-07-22T20:51:55.443Z,96933.36
2018-07-22T20:54:26.537Z,96934.63
2018-07-22T20:56:55.790Z,96935.25
2018-07-22T20:59:24.915Z,96941.65
2018-07-22T21:01:54.099Z,96940.30
2018-07-22T21:04:23.382Z,96945.25
2018-07-22T21:06:52.571Z,96946.35
2018-07-22T21:09:21.752Z,96947.82
2018-07-22T21:14:03.113Z,96948.05
2018-07-22T21:16:32.508Z,96944.52
2018-07-22T21:19:01.679Z,96956.84
2018-07-22T21:21:30.871Z,96960.13
2018-07-22T21:24:00.016Z,96962.44
2018-07-22T21:26:29.202Z,96967.94
2018-07-22T21:28:58.363Z,96960.31
2018-07-22T21:31:28.007Z,96963.06
2018-07-22T21:33:57.172Z,96960.60
2018-07-22T21:36:26.355Z,96966.77
2018-07-22T21:38:55.979Z,96968.30
2018-07-22T21:41:25.160Z,96965.48
2018-07-22T21:43:54.307Z,96962.90
2018-07-22T21:46:23.499Z,96972.00
2018-07-22T21:48:52.662Z,96971.48
2018-07-22T21:51:21.843Z,96966.44
2018-07-22T21:53:51.035Z,96972.25
2018-07-22T21:56:20.694Z,96973.14
2018-07-22T21:58:49.831Z,96970.20
2018-07-22T22:01:19.100Z,96977.05
2018-07-22T22:03:48.263Z,96979.27
2018-07-22T22:06:18.274Z,96978.46
2018-07-22T22:08:47.440Z,96979.27
2018-07-22T22:11:16.639Z,96979.55
2018-07-22T22:13:45.803Z,96989.13
2018-07-22T22:16:14.944Z,96987.02
2018-07-22T22:18:44.465Z,96984.56
2018-07-22T22:21:13.647Z,96987.59
2018-07-22T22:23:42.871Z,96988.39
2018-07-22T22:26:12.598Z,96989.57
2018-07-22T22:28:41.893Z,96992.41
2018-07-22T22:31:11.267Z,96996.32
2018-07-22T22:33:40.491Z,96996.34
2018-07-22T22:36:09.659Z,96996.61
2018-07-22T22:38:38.839Z,96994.98
2018-07-22T22:41:08.032Z,96994.57
2018-07-22T22:43:37.223Z,96991.80
2018-07-22T22:46:06.497Z,96989.84
2018-07-22T22:48:35.671Z,96991.19
2018-07-22T22:51:04.831Z,96992.28
2018-07-22T22:53:34.024Z,96999.39
2018-07-22T22:56:03.207Z,96999.22
2018-07-22T22:58:43.923Z,96997.51
2018-07-22T23:01:13.710Z,96995.42
2018-07-22T23:03:42.870Z,96991.83
2018-07-22T23:06:12.391Z,96991.83
2018-07-22T23:08:41.579Z,96996.30
2018-07-22T23:11:11.465Z,96998.80
2018-07-22T23:13:40.618Z,96998.80
2018-07-22T23:16:09.838Z,96999.41
2018-07-22T23:18:39.027Z,96993.20
2018-07-22T23:21:08.366Z,96992.78
2018-07-22T23:23:37.564Z,96996.84
2018-07-22T23:26:06.868Z,97001.14
2018-07-22T23:28:36.074Z,96997.41
2018-07-22T23:31:05.279Z,96997.21
2018-07-22T23:33:34.483Z,97004.51
2018-07-22T23:36:03.847Z,96998.50
2018-07-22T23:38:33.350Z,97001.08
2018-07-22T23:41:03.680Z,97001.08
2018-07-22T23:43:32.851Z,97006.39
2018-07-22T23:46:02.443Z,97001.08
2018-07-22T23:48:31.855Z,96999.61
2018-07-22T23:51:01.047Z,96999.35
2018-07-22T23:53:30.626Z,96997.73
2018-07-22T23:55:59.812Z,96995.70
2018-07-22T23:58:30.224Z,96995.97
